Weather observations for the past three days for
Page, Page Municipal Airport
Metric (Imperial)
Date Time (mst) Wind (kph) Vis. (km) Weather Sky Cond. Temperature (ºC) Relative Humidity Wind Chill (°C) Heat Index (°C) Pressure Precipitation (cm)
Air Dwpt 6 hour altimeter (cm) sea level (mb) 1 hr 3 hr 6 hr
Max. Min.
04 07:53 NW 6 16.09 Fair CLR 15 3.9 48% 76 1008.5
04 06:53 Calm 16.09 Fair CLR 14.4 2.8 46% 75.97 1008.0
04 05:53 Calm 16.09 Fair CLR 13.3 3.3 51% 75.95 1007.7
04 04:53 Calm 16.09 Partly Cloudy SCT100 13.9 3.3 16.1 13.9 49% 75.92 1007.4
04 03:53 Calm 9.66 Fair with Haze CLR 13.9 2.8 47% 75.92 1006.9
04 02:53 Calm 16.09 Fair CLR 15 3.3 46% 75.92 1006.7
04 01:53 S 7 16.09 Fair CLR 15 3.3 46% 75.92 1006.4
04 00:53 W 7 16.09 Fair CLR 15.6 3.9 46% 75.92 1006.7
03 23:53 SW 7 16.09 Fair CLR 15 3.9 48% 75.92 1007.1
03 22:53 SW 6 16.09 Fair CLR 16.1 3.9 22.8 16.1 44% 75.97 1007.9
03 21:53 W 6 16.09 A Few Clouds FEW100 17.2 4.4 43% 76 1008.1
03 20:53 W 13 G 30 16.09 A Few Clouds FEW120 17.8 4.4 41% 75.97 1008.0
03 19:53 W 17 G 43 16.09 Mostly Cloudy BKN110 18.9 3.9 37% 75.87 1006.9
03 18:53 Calm 16.09 Fair CLR 22.2 0 23% 75.79 1005.4
03 17:53 SW 7 16.09 Partly Cloudy SCT110 22.8 0.6 23% 75.82 1006.0
03 16:53 SW 17 G 37 16.09 Mostly Cloudy BKN110 22.2 1.7 27.8 21.1 26% 75.87 1006.7
03 15:53 SW 17 G 31 16.09 Fair CLR 25.6 -1.7 16% 25 75.84 1005.5
03 14:53 S 22 G 41 16.09 Mostly Cloudy BKN110 26.1 -2.2 15% 25 75.87 1006.1
03 13:53 S 19 G 30 16.09 A Few Clouds FEW110 26.7 -2.8 14% 26 75.97 1007.1
03 12:53 Calm 16.09 Fair CLR 26.1 -3.9 14% 25 76.05 1008.2
03 11:53 NE 15 16.09 Fair CLR 23.9 -4.4 15% 24 76.15 1009.8
03 10:53 Vrbl 6 16.09 Fair CLR 21.7 -5.6 22.8 12.8 16% 76.25 1011.3
03 09:53 NW 9 16.09 Fair CLR 20 -6.1 17% 76.33 1012.5
03 08:53 Vrbl 6 16.09 Fair CLR 17.2 -6.1 20% 76.35 1013.1
03 07:53 W 6 16.09 A Few Clouds FEW120 15.6 -5 24% 76.35 1013.2
03 06:53 Vrbl 6 16.09 Fair CLR 15 -5 25% 76.3 1012.5
03 05:53 SW 6 16.09 Fair CLR 13.3 -6.1 26% 76.3 1012.4
03 04:53 SE 7 16.09 Fair CLR 13.9 -6.7 18.3 13.3 24% 76.25 1011.6
03 03:53 S 15 16.09 Fair CLR 15.6 -7.2 20% 76.25 1011.3
03 02:53 S 6 16.09 Fair CLR 13.9 -5.6 26% 76.25 1011.7
03 01:53 Calm 16.09 Fair CLR 15 -6.1 23% 76.28 1011.9
03 00:53 SE 9 16.09 Fair CLR 15.6 -6.7 21% 76.28 1012.2
02 23:53 S 6 16.09 Fair CLR 17.8 -5.6 20% 76.3 1012.1
02 22:53 S 9 16.09 Fair CLR 17.8 -5.6 23.9 17.8 20% 76.28 1012.0
02 21:53 SE 7 16.09 Fair CLR 18.3 -5.6 19% 76.28 1012.2
02 20:53 Calm 16.09 Fair CLR 19.4 -5 19% 76.25 1012.2
02 19:53 Calm 16.09 Fair CLR 21.1 -5 17% 76.2 1011.6
02 18:53 NE 9 16.09 Fair CLR 22.2 -5 16% 76.2 1011.4
02 17:53 Vrbl 11 16.09 Fair CLR 23.3 -5 15% 76.2 1011.6
02 16:53 N 17 16.09 Fair CLR 23.9 -5 24.4 19.4 14% 24 76.23 1011.7
02 15:53 N 20 G 30 16.09 Fair CLR 23.9 -4.4 15% 24 76.25 1012.2
02 14:53 N 17 G 33 16.09 Fair CLR 23.3 -3.9 16% 76.35 1013.4
02 13:53 Vrbl 6 G 31 16.09 Fair CLR 22.2 -5 16% 76.43 1014.4
02 12:53 N 11 16.09 Fair CLR 22.2 -5.6 15% 76.48 1015.1
02 11:53 N 11 16.09 Fair CLR 21.1 -6.1 16% 76.56 1016.2
02 10:53 Vrbl 9 16.09 Fair CLR 19.4 -7.2 19.4 9.4 16% 76.61 1016.9
02 09:53 Calm 16.09 Fair CLR 17.8 -8.9 15% 76.63 1017.3
02 08:53 NW 9 16.09 Fair CLR 15 -11.1 15% 76.63 1017.5
02 07:53 Vrbl 6 16.09 Fair CLR 13.3 -11.1 17% 76.61 1017.3
02 06:53 SE 7 16.09 Fair CLR 12.2 -12.8 16% 76.58 1016.8
02 05:53 Calm 16.09 Fair CLR 9.4 -12.8 20% 76.5 1016.0
02 04:53 Calm 16.09 Fair CLR 10 -12.2 16.1 9.4 20% 76.48 1015.5
02 03:53 SE 7 16.09 Fair CLR 10.6 -11.1 21% 76.48 1015.5
02 02:53 SW 6 16.09 Fair CLR 11.1 -11.1 20% 76.45 1015.3
02 01:53 SW 6 16.09 Fair CLR 11.7 -10 21% 76.45 1015.0
02 00:53 W 7 16.09 Fair CLR 12.2 -8.9 22% 76.45 1014.9
01 23:53 SW 6 16.09 Fair CLR 12.8 -9.4 21% 76.43 1014.7
01 22:53 SE 6 16.09 Fair CLR 16.1 -11.7 21.1 15.6 14% 76.4 1013.9
01 21:53 E 6 16.09 Fair CLR 16.7 -8.9 17% 76.38 1014.1
01 20:53 N 6 16.09 Fair CLR 17.8 -7.2 18% 76.33 1013.1
01 19:53 Calm 16.09 Fair CLR 18.3 -7.2 17% 76.25 1012.3
01 18:53 NW 11 16.09 Fair CLR 20 -7.8 15% 76.23 1011.6
01 17:53 N 7 16.09 Fair CLR 21.1 -7.8 14% 76.2 1011.3
01 16:53 N 15 G 31 16.09 Fair CLR 21.7 -7.2 22.2 18.3 14% 76.2 1011.3
01 15:53 N 22 G 37 16.09 Fair CLR 21.1 -7.2 14% 76.17 1011.0
01 14:53 Calm 16.09 Partly Cloudy SCT110 21.1 -7.2 14% 76.2 1011.2
01 13:53 Calm 16.09 Fair CLR 20.6 -6.7 15% 76.25 1011.7
01 12:53 NE 15 G 35 16.09 Fair CLR 20.6 -6.7 15% 76.28 1012.0
01 11:53 N 15 G 35 16.09 Fair CLR 18.9 -6.1 18% 76.33 1012.8
01 10:53 Vrbl 6 16.09 Fair CLR 18.9 -6.1 18.9 12.8 18% 76.35 1013.2
01 09:53 Vrbl 6 16.09 Fair CLR 16.7 -5.6 21% 76.38 1013.7
01 08:53 NE 7 16.09 Fair CLR 16.1 -5.6 22% 76.35 1013.5
Date Time (mst) Wind (kph) Vis. (km) Weather Sky Cond. Air Dwpt Max. Min. Relative Humidity Wind Chill (°C) Heat Index (°C) altimeter (cm) sea level (mb) 1 hr 3 hr 6 hr
6 hour
Temperature (ºC) Pressure Precipitation (cm)